createdAt,value
2018-11-26T00:00:37.828Z,65.43
2018-11-26T00:03:07.145Z,62.43
2018-11-26T00:05:36.328Z,63.83
2018-11-26T00:08:05.462Z,61.20
2018-11-26T00:10:46.423Z,64.93
2018-11-26T00:13:15.091Z,65.93
2018-11-26T00:15:43.663Z,60.97
2018-11-26T00:18:12.193Z,63.40
2018-11-26T00:20:40.967Z,63.93
2018-11-26T00:23:09.688Z,61.47
2018-11-26T00:25:38.285Z,63.00
2018-11-26T00:28:07.066Z,60.60
2018-11-26T00:30:35.948Z,65.80
2018-11-26T00:33:04.806Z,61.03
2018-11-26T00:35:33.514Z,59.50
2018-11-26T00:38:02.236Z,55.37
2018-11-26T00:40:31.129Z,60.77
2018-11-26T00:43:00.021Z,62.37
2018-11-26T00:45:28.915Z,61.97
2018-11-26T00:47:57.626Z,64.27
2018-11-26T00:50:26.416Z,67.50
2018-11-26T00:52:55.087Z,63.10
2018-11-26T00:55:23.722Z,69.97
2018-11-26T00:57:52.499Z,66.20
2018-11-26T01:00:21.159Z,63.47
2018-11-26T01:02:49.699Z,63.60
2018-11-26T01:05:23.982Z,61.80
2018-11-26T01:07:52.741Z,62.23
2018-11-26T01:10:21.454Z,63.00
2018-11-26T01:12:50.228Z,61.17
2018-11-26T01:15:19.119Z,67.33
2018-11-26T01:17:47.987Z,57.47
2018-11-26T01:20:16.911Z,60.70
2018-11-26T01:22:45.739Z,62.77
2018-11-26T01:25:14.271Z,62.10
2018-11-26T01:27:43.044Z,63.27
2018-11-26T01:30:11.610Z,59.10
2018-11-26T01:32:40.534Z,61.30
2018-11-26T01:35:09.206Z,55.67
2018-11-26T01:37:38.032Z,61.17
2018-11-26T01:40:10.118Z,58.50
2018-11-26T01:42:38.644Z,61.30
2018-11-26T01:45:07.190Z,60.07
2018-11-26T01:47:35.931Z,59.47
2018-11-26T01:50:04.887Z,60.57
2018-11-26T01:52:33.490Z,57.83
2018-11-26T01:55:02.138Z,55.07
2018-11-26T01:57:31.047Z,56.67
2018-11-26T02:00:00.115Z,58.13
2018-11-26T02:02:28.632Z,59.07
2018-11-26T02:04:57.390Z,56.90
2018-11-26T02:07:26.262Z,55.67
2018-11-26T02:09:55.159Z,58.70
2018-11-26T02:12:23.935Z,54.37
2018-11-26T02:14:52.687Z,52.53
2018-11-26T02:17:21.357Z,55.30
2018-11-26T02:19:50.108Z,55.27
2018-11-26T02:22:18.874Z,51.77
2018-11-26T02:24:47.637Z,51.00
2018-11-26T02:27:16.506Z,49.70
2018-11-26T02:29:45.164Z,51.40
2018-11-26T02:32:13.706Z,52.10
2018-11-26T02:34:42.518Z,50.83
2018-11-26T02:37:11.427Z,49.80
2018-11-26T02:39:40.303Z,50.73
2018-11-26T02:42:09.023Z,51.20
2018-11-26T02:44:37.772Z,47.60
2018-11-26T02:47:06.503Z,48.53
2018-11-26T02:49:35.264Z,47.97
2018-11-26T02:52:04.204Z,49.07
2018-11-26T02:54:33.078Z,46.73
2018-11-26T02:57:01.984Z,47.27
2018-11-26T02:59:30.620Z,44.67
2018-11-26T03:01:59.151Z,48.63
2018-11-26T03:04:27.723Z,47.40
2018-11-26T03:06:56.500Z,47.63
2018-11-26T03:09:25.884Z,51.40
2018-11-26T03:11:54.422Z,48.83
2018-11-26T03:14:23.187Z,46.37
2018-11-26T03:16:52.144Z,46.80
2018-11-26T03:19:21.052Z,46.77
2018-11-26T03:21:49.697Z,48.47
2018-11-26T03:24:18.239Z,48.97
2018-11-26T03:26:47.003Z,46.93
2018-11-26T03:29:15.665Z,46.07
2018-11-26T03:31:44.225Z,45.60
2018-11-26T03:34:12.759Z,45.77
2018-11-26T03:36:41.543Z,46.73
2018-11-26T03:39:10.446Z,49.57
2018-11-26T03:41:39.090Z,45.20
2018-11-26T03:44:07.859Z,45.57
2018-11-26T03:46:36.518Z,45.77
2018-11-26T03:49:05.543Z,42.47
2018-11-26T03:51:34.430Z,45.13
2018-11-26T03:54:03.319Z,46.60
2018-11-26T03:56:32.213Z,43.13
2018-11-26T03:59:01.236Z,44.03
2018-11-26T04:01:30.107Z,46.03
2018-11-26T04:03:58.821Z,41.73
2018-11-26T04:06:27.447Z,44.07
2018-11-26T04:08:56.195Z,41.70
2018-11-26T04:11:24.860Z,45.73
2018-11-26T04:13:53.397Z,44.90
2018-11-26T04:16:22.145Z,41.50
2018-11-26T04:18:51.360Z,41.37
2018-11-26T04:21:20.231Z,44.53
2018-11-26T04:23:48.936Z,41.23
2018-11-26T04:26:17.533Z,48.70
2018-11-26T04:28:46.291Z,40.77
2018-11-26T04:31:15.216Z,42.63
2018-11-26T04:33:43.844Z,42.90
2018-11-26T04:36:12.472Z,39.80
2018-11-26T04:38:41.244Z,41.33
2018-11-26T04:41:10.129Z,44.67
2018-11-26T04:43:38.790Z,40.27
2018-11-26T04:46:07.562Z,42.83
2018-11-26T04:48:36.440Z,41.93
2018-11-26T04:51:05.190Z,41.00
2018-11-26T04:53:33.769Z,43.43
2018-11-26T04:56:02.274Z,40.37
2018-11-26T04:58:30.803Z,41.50
2018-11-26T05:00:59.415Z,43.13
2018-11-26T05:03:28.166Z,42.37
2018-11-26T05:05:57.044Z,43.10
2018-11-26T05:08:25.963Z,41.70
2018-11-26T05:10:54.654Z,41.80
2018-11-26T05:13:23.400Z,40.40
2018-11-26T05:15:52.115Z,40.80
2018-11-26T05:18:20.894Z,44.90
2018-11-26T05:20:49.771Z,43.80
2018-11-26T05:23:18.542Z,43.10
2018-11-26T05:25:47.291Z,45.70
2018-11-26T05:28:16.185Z,45.53
2018-11-26T05:30:45.063Z,41.70
2018-11-26T05:33:13.807Z,43.37
2018-11-26T05:35:42.302Z,47.83
2018-11-26T05:38:11.069Z,43.13
2018-11-26T05:40:39.735Z,44.13
2018-11-26T05:43:08.495Z,47.70
2018-11-26T05:45:37.384Z,46.33
2018-11-26T05:48:06.328Z,45.43
2018-11-26T05:50:35.250Z,49.17
2018-11-26T05:53:03.962Z,47.53
2018-11-26T05:55:32.503Z,48.17
2018-11-26T05:58:01.292Z,44.63
2018-11-26T06:00:32.117Z,44.93
2018-11-26T06:03:00.828Z,45.43
2018-11-26T06:05:29.446Z,50.07
2018-11-26T06:07:58.198Z,46.40
2018-11-26T06:10:27.091Z,45.00
2018-11-26T06:12:55.978Z,47.20
2018-11-26T06:15:24.636Z,45.43
2018-11-26T06:17:53.388Z,49.83
2018-11-26T06:20:22.147Z,43.17
2018-11-26T06:22:50.762Z,46.87
2018-11-26T06:25:19.839Z,48.50
2018-11-26T06:27:48.446Z,45.70
2018-11-26T06:30:18.316Z,48.97
2018-11-26T06:32:46.980Z,44.03
2018-11-26T06:35:16.144Z,47.33
2018-11-26T06:37:44.912Z,44.67
2018-11-26T06:40:14.152Z,46.33
2018-11-26T06:42:42.932Z,48.43
2018-11-26T06:45:21.913Z,43.93
2018-11-26T06:47:51.105Z,52.00
2018-11-26T06:50:20.839Z,44.10
2018-11-26T06:52:49.502Z,47.50
2018-11-26T06:55:19.323Z,48.33
2018-11-26T06:57:48.351Z,47.33
2018-11-26T07:00:18.494Z,46.47
2018-11-26T07:02:47.403Z,49.17
2018-11-26T07:05:18.486Z,42.60
2018-11-26T07:07:47.316Z,41.60
2018-11-26T07:10:16.355Z,44.33
2018-11-26T07:12:45.352Z,44.13
2018-11-26T07:15:16.443Z,45.30
2018-11-26T07:17:45.672Z,46.43
2018-11-26T07:20:16.157Z,43.77
2018-11-26T07:22:44.679Z,42.67
2018-11-26T07:25:16.543Z,45.57
2018-11-26T07:27:46.665Z,44.20
2018-11-26T07:30:17.293Z,45.47
2018-11-26T07:32:45.968Z,41.67
2018-11-26T07:35:14.880Z,47.97
2018-11-26T07:37:43.914Z,46.57
2018-11-26T07:40:15.126Z,45.97
2018-11-26T07:42:46.551Z,41.87
2018-11-26T07:45:15.452Z,44.17
2018-11-26T07:47:44.344Z,43.87
2018-11-26T07:50:14.452Z,42.57
2018-11-26T07:52:43.410Z,46.70
2018-11-26T07:55:12.803Z,42.53
2018-11-26T07:57:41.549Z,42.73
2018-11-26T08:00:10.903Z,43.33
2018-11-26T08:02:39.525Z,44.70
2018-11-26T08:05:09.970Z,49.23
2018-11-26T08:07:39.981Z,45.47
2018-11-26T08:10:11.094Z,53.43
2018-11-26T08:12:39.749Z,51.33
2018-11-26T08:15:19.896Z,48.90
2018-11-26T08:17:48.540Z,47.23
2018-11-26T08:20:17.351Z,49.00
2018-11-26T08:22:46.137Z,48.40
2018-11-26T08:25:15.604Z,51.53
2018-11-26T08:27:45.403Z,51.43
2018-11-26T08:30:14.527Z,50.77
2018-11-26T08:32:44.015Z,48.10
2018-11-26T08:35:13.251Z,50.37
2018-11-26T08:37:47.407Z,50.57
2018-11-26T08:40:18.568Z,48.93
2018-11-26T08:42:51.280Z,45.83
2018-11-26T08:45:20.091Z,46.80
2018-11-26T08:47:54.236Z,52.63
2018-11-26T08:50:22.999Z,49.67
2018-11-26T08:52:51.663Z,51.83
2018-11-26T08:55:20.255Z,51.47
2018-11-26T08:57:48.801Z,50.90
2018-11-26T09:00:17.747Z,49.03
2018-11-26T09:02:49.049Z,51.00
2018-11-26T09:05:27.095Z,50.77
2018-11-26T09:07:56.005Z,52.27
2018-11-26T09:10:24.759Z,49.23
2018-11-26T09:12:53.502Z,52.77
2018-11-26T09:15:22.408Z,48.77
2018-11-26T09:17:51.309Z,48.63
2018-11-26T09:20:19.955Z,50.83
2018-11-26T09:22:48.735Z,51.10
2018-11-26T09:25:17.612Z,50.67
2018-11-26T09:27:46.624Z,48.83
2018-11-26T09:30:15.517Z,52.23
2018-11-26T09:32:44.243Z,51.33
2018-11-26T09:35:13.598Z,50.63
2018-11-26T09:37:42.384Z,52.17
2018-11-26T09:40:15.188Z,45.23
2018-11-26T09:42:44.348Z,51.30
2018-11-26T09:45:13.741Z,45.03
2018-11-26T09:47:42.541Z,48.57
2018-11-26T09:50:12.691Z,50.13
2018-11-26T09:52:41.349Z,46.43
2018-11-26T09:55:10.244Z,47.67
2018-11-26T09:57:39.021Z,49.87
2018-11-26T10:00:11.499Z,46.20
2018-11-26T10:02:40.507Z,47.87
2018-11-26T10:05:10.956Z,49.07
2018-11-26T10:07:40.132Z,49.90
2018-11-26T10:10:10.299Z,46.47
2018-11-26T10:12:39.685Z,41.87
2018-11-26T10:15:13.861Z,46.90
2018-11-26T10:17:42.796Z,48.33
2018-11-26T10:20:12.193Z,50.33
2018-11-26T10:22:41.038Z,47.87
2018-11-26T10:25:12.146Z,43.97
2018-11-26T10:27:40.779Z,46.07
2018-11-26T10:30:12.427Z,48.23
2018-11-26T10:32:41.688Z,45.40
2018-11-26T10:35:12.436Z,49.53
2018-11-26T10:37:41.339Z,45.87
2018-11-26T10:40:13.682Z,50.73
2018-11-26T10:42:42.438Z,44.33
2018-11-26T10:45:11.554Z,51.50
2018-11-26T10:47:40.098Z,46.30
2018-11-26T10:50:10.334Z,48.27
2018-11-26T10:52:39.693Z,47.37
2018-11-26T10:55:09.435Z,48.83
2018-11-26T10:57:38.335Z,46.53
2018-11-26T11:00:08.571Z,46.23
2018-11-26T11:02:42.436Z,44.63
2018-11-26T11:05:11.230Z,47.67
2018-11-26T11:07:39.991Z,46.37
2018-11-26T11:10:10.308Z,46.33
2018-11-26T11:12:39.079Z,43.67
2018-11-26T11:15:09.871Z,50.00
2018-11-26T11:17:38.769Z,51.03
2018-11-26T11:20:10.700Z,46.97
2018-11-26T11:22:39.395Z,41.07
2018-11-26T11:25:09.149Z,46.67
2018-11-26T11:27:38.043Z,46.67
2018-11-26T11:30:09.466Z,45.43
2018-11-26T11:32:38.293Z,45.13
2018-11-26T11:35:07.381Z,46.50
2018-11-26T11:37:36.469Z,45.33
2018-11-26T11:40:07.859Z,48.77
2018-11-26T11:42:38.772Z,46.67
2018-11-26T11:45:09.422Z,45.47
2018-11-26T11:47:38.311Z,51.90
2018-11-26T11:50:08.439Z,45.20
2018-11-26T11:52:36.974Z,52.93
2018-11-26T11:55:07.312Z,48.57
2018-11-26T11:57:36.180Z,51.10
2018-11-26T12:00:10.829Z,53.80
2018-11-26T12:02:40.068Z,49.13
2018-11-26T12:05:10.790Z,48.37
2018-11-26T12:07:39.682Z,51.17
2018-11-26T12:10:09.092Z,49.73
2018-11-26T12:12:37.942Z,52.73
2018-11-26T12:15:13.440Z,52.40
2018-11-26T12:17:42.925Z,57.03
2018-11-26T12:20:12.823Z,53.30
2018-11-26T12:22:42.061Z,58.00
2018-11-26T12:25:12.307Z,52.30
2018-11-26T12:27:41.234Z,86.90
2018-11-26T12:30:12.628Z,58.53
2018-11-26T12:32:41.246Z,53.57
2018-11-26T12:35:09.773Z,54.03
2018-11-26T12:37:38.609Z,58.97
2018-11-26T12:40:08.183Z,49.77
2018-11-26T12:42:36.805Z,57.23
2018-11-26T12:45:08.939Z,55.13
2018-11-26T12:47:37.710Z,54.87
2018-11-26T12:50:06.809Z,58.23
2018-11-26T12:52:35.824Z,59.27
2018-11-26T12:55:04.600Z,53.80
2018-11-26T12:57:33.432Z,51.57
2018-11-26T13:00:02.088Z,55.93
2018-11-26T13:02:30.832Z,58.23
2018-11-26T13:04:59.486Z,47.33
2018-11-26T13:07:28.128Z,58.33
2018-11-26T13:09:56.901Z,54.97
2018-11-26T13:12:25.616Z,53.57
2018-11-26T13:14:54.391Z,55.37
2018-11-26T13:17:23.265Z,55.77
2018-11-26T13:19:52.014Z,54.17
2018-11-26T13:22:20.561Z,57.20
2018-11-26T13:24:49.178Z,53.37
2018-11-26T13:27:17.921Z,55.67
2018-11-26T13:29:46.629Z,51.90
2018-11-26T13:32:15.257Z,56.77
2018-11-26T13:34:44.025Z,56.33
2018-11-26T13:37:12.740Z,52.37
2018-11-26T13:39:41.825Z,56.43
2018-11-26T13:42:10.468Z,58.20
2018-11-26T13:44:39.297Z,56.63
2018-11-26T13:47:08.231Z,58.67
2018-11-26T13:49:36.935Z,53.63
2018-11-26T13:52:05.552Z,56.60
2018-11-26T13:54:34.111Z,53.80
2018-11-26T13:57:02.644Z,56.47
2018-11-26T13:59:31.248Z,59.37
2018-11-26T14:01:59.989Z,52.53
2018-11-26T14:04:28.732Z,57.17
2018-11-26T14:06:57.488Z,55.80
2018-11-26T14:09:26.397Z,54.97
2018-11-26T14:11:55.205Z,56.70
2018-11-26T14:14:23.921Z,55.73
2018-11-26T14:16:53.084Z,51.47
2018-11-26T14:19:21.974Z,53.80
2018-11-26T14:21:50.672Z,57.57
2018-11-26T14:24:19.344Z,53.63
2018-11-26T14:26:48.132Z,52.50
2018-11-26T14:29:17.028Z,56.07
2018-11-26T14:31:45.740Z,54.93
2018-11-26T14:34:14.518Z,52.63
2018-11-26T14:36:43.181Z,52.43
2018-11-26T14:39:11.949Z,55.70
2018-11-26T14:41:40.666Z,50.73
2018-11-26T14:44:09.448Z,45.90
2018-11-26T14:46:38.147Z,52.37
2018-11-26T14:49:06.905Z,51.63
2018-11-26T14:51:36.694Z,54.00
2018-11-26T14:54:05.401Z,55.90
2018-11-26T14:56:33.914Z,52.10
2018-11-26T14:59:02.455Z,51.53
2018-11-26T15:01:31.049Z,53.97
2018-11-26T15:03:59.809Z,55.30
2018-11-26T15:06:28.539Z,50.83
2018-11-26T15:08:57.304Z,56.47
2018-11-26T15:11:26.200Z,57.37
2018-11-26T15:13:55.007Z,53.80
2018-11-26T15:16:23.774Z,57.67
2018-11-26T15:18:52.797Z,56.00
2018-11-26T15:21:21.687Z,56.23
2018-11-26T15:23:50.385Z,58.37
2018-11-26T15:26:19.047Z,55.80
2018-11-26T15:28:47.818Z,58.53
2018-11-26T15:31:16.515Z,56.60
2018-11-26T15:33:45.334Z,57.27
2018-11-26T15:36:14.116Z,56.10
2018-11-26T15:38:42.826Z,51.87
2018-11-26T15:41:11.620Z,55.20
2018-11-26T15:43:40.386Z,56.77
2018-11-26T15:46:08.953Z,52.73
2018-11-26T15:48:38.351Z,55.87
2018-11-26T15:51:07.026Z,53.97
2018-11-26T15:53:35.576Z,51.13
2018-11-26T15:56:04.212Z,55.47
2018-11-26T15:58:34.464Z,56.33
2018-11-26T16:01:03.023Z,58.07
2018-11-26T16:03:31.556Z,57.77
2018-11-26T16:06:00.153Z,56.57
2018-11-26T16:08:28.924Z,53.33
2018-11-26T16:10:57.818Z,53.37
2018-11-26T16:13:26.718Z,53.53
2018-11-26T16:15:55.600Z,58.70
2018-11-26T16:18:24.525Z,54.20
2018-11-26T16:20:53.421Z,53.67
2018-11-26T16:23:22.088Z,62.27
2018-11-26T16:25:50.637Z,54.73
2018-11-26T16:28:21.022Z,56.57
2018-11-26T16:30:49.517Z,57.27
2018-11-26T16:33:18.116Z,55.10
2018-11-26T16:35:47.522Z,54.23
2018-11-26T16:38:16.190Z,58.63
2018-11-26T16:40:44.829Z,52.70
2018-11-26T16:43:13.376Z,57.00
2018-11-26T16:45:42.133Z,56.93
2018-11-26T16:48:10.833Z,53.20
2018-11-26T16:50:39.600Z,56.53
2018-11-26T16:53:08.262Z,56.37
2018-11-26T16:55:37.012Z,54.13
2018-11-26T16:58:05.896Z,54.13
2018-11-26T17:00:34.824Z,58.83
2018-11-26T17:03:03.728Z,49.53
2018-11-26T17:05:33.095Z,55.27
2018-11-26T17:08:01.904Z,60.13
2018-11-26T17:10:30.577Z,59.93
2018-11-26T17:12:59.334Z,56.47
2018-11-26T17:15:28.074Z,56.77
2018-11-26T17:17:56.875Z,58.07
2018-11-26T17:20:25.728Z,52.10
2018-11-26T17:22:54.653Z,53.93
2018-11-26T17:25:23.416Z,56.90
2018-11-26T17:27:51.964Z,57.67
2018-11-26T17:30:23.593Z,53.60
2018-11-26T17:32:53.052Z,54.97
2018-11-26T17:35:21.700Z,59.83
2018-11-26T17:37:50.469Z,52.83
2018-11-26T17:40:19.644Z,56.53
2018-11-26T17:42:48.480Z,54.27
2018-11-26T17:45:17.981Z,54.30
2018-11-26T17:47:48.220Z,60.10
2018-11-26T17:50:26.676Z,52.07
2018-11-26T17:52:55.359Z,52.97
2018-11-26T17:55:23.987Z,51.70
2018-11-26T17:57:52.622Z,59.47
2018-11-26T18:00:26.173Z,58.47
2018-11-26T18:02:55.633Z,51.93
2018-11-26T18:05:27.848Z,60.37
2018-11-26T18:07:59.716Z,56.50
2018-11-26T18:10:28.415Z,53.23
2018-11-26T18:12:57.217Z,53.17
2018-11-26T18:15:26.121Z,56.80
2018-11-26T18:17:54.780Z,53.50
2018-11-26T18:20:24.189Z,55.17
2018-11-26T18:22:54.005Z,53.93
2018-11-26T18:25:24.428Z,55.33
2018-11-26T18:28:01.860Z,54.60
2018-11-26T18:30:31.479Z,54.20
2018-11-26T18:33:00.262Z,50.17
2018-11-26T18:35:29.240Z,53.37
2018-11-26T18:37:58.272Z,50.53
2018-11-26T18:40:27.169Z,55.90
2018-11-26T18:42:56.061Z,50.30
2018-11-26T18:45:24.788Z,53.53
2018-11-26T18:47:53.594Z,52.33
2018-11-26T18:50:22.284Z,49.53
2018-11-26T18:52:51.243Z,53.67
2018-11-26T18:55:20.656Z,48.17
2018-11-26T18:57:49.492Z,51.33
2018-11-26T19:00:20.752Z,51.93
2018-11-26T19:02:49.538Z,54.10
2018-11-26T19:05:18.905Z,53.80
2018-11-26T19:07:47.813Z,47.03
2018-11-26T19:10:20.285Z,56.73
2018-11-26T19:12:55.012Z,54.57
2018-11-26T19:15:25.732Z,54.27
2018-11-26T19:17:56.692Z,50.50
2018-11-26T19:20:25.448Z,51.53
2018-11-26T19:22:54.225Z,50.23
2018-11-26T19:25:22.936Z,52.27
2018-11-26T19:27:51.690Z,52.40
2018-11-26T19:30:23.011Z,53.23
2018-11-26T19:32:49.338Z,50.50
2018-11-26T19:35:17.868Z,51.50
2018-11-26T19:37:46.437Z,56.03
2018-11-26T19:40:16.034Z,55.47
2018-11-26T19:42:46.824Z,51.33
2018-11-26T19:45:17.568Z,53.30
2018-11-26T19:47:46.416Z,52.17
2018-11-26T19:50:16.630Z,51.27
2018-11-26T19:52:46.510Z,51.43
2018-11-26T19:55:18.881Z,58.57
2018-11-26T19:57:47.793Z,52.63
2018-11-26T20:00:18.173Z,61.93
2018-11-26T20:02:50.552Z,54.07
2018-11-26T20:05:20.352Z,52.70
2018-11-26T20:07:48.966Z,52.60
2018-11-26T20:10:18.281Z,53.47
2018-11-26T20:12:47.205Z,51.33
2018-11-26T20:15:16.982Z,52.67
2018-11-26T20:17:45.910Z,49.60
2018-11-26T20:20:14.839Z,49.67
2018-11-26T20:22:43.676Z,52.37
2018-11-26T20:25:13.704Z,55.03
2018-11-26T20:27:43.073Z,51.27
2018-11-26T20:30:13.380Z,51.87
2018-11-26T20:32:43.879Z,51.17
2018-11-26T20:35:13.169Z,47.93
2018-11-26T20:37:41.948Z,52.50
2018-11-26T20:40:12.094Z,51.97
2018-11-26T20:42:43.109Z,52.70
2018-11-26T20:45:12.430Z,53.13
2018-11-26T20:47:41.008Z,51.77
2018-11-26T20:50:12.040Z,53.00
2018-11-26T20:52:40.992Z,52.63
2018-11-26T20:55:11.444Z,55.33
2018-11-26T20:57:40.145Z,54.87
2018-11-26T21:00:10.381Z,50.73
2018-11-26T21:02:39.168Z,49.10
2018-11-26T21:05:08.045Z,54.13
2018-11-26T21:07:36.772Z,41.93
2018-11-26T21:10:09.092Z,48.90
2018-11-26T21:12:38.021Z,50.17
2018-11-26T21:15:07.937Z,49.83
2018-11-26T21:17:36.501Z,50.33
2018-11-26T21:20:10.681Z,53.30
2018-11-26T21:22:39.420Z,52.70
2018-11-26T21:25:09.961Z,52.97
2018-11-26T21:27:39.571Z,49.93
2018-11-26T21:30:11.180Z,51.43
2018-11-26T21:32:40.138Z,37.47
2018-11-26T21:35:10.394Z,51.03
2018-11-26T21:37:40.005Z,52.33
2018-11-26T21:40:10.310Z,48.40
2018-11-26T21:42:39.226Z,48.33
2018-11-26T21:45:11.009Z,47.63
2018-11-26T21:47:39.902Z,49.17
2018-11-26T21:50:10.391Z,52.43
2018-11-26T21:52:39.250Z,50.93
2018-11-26T21:55:15.506Z,49.43
2018-11-26T21:57:44.130Z,47.77
2018-11-26T22:00:19.089Z,52.63
2018-11-26T22:02:47.879Z,51.80
2018-11-26T22:05:16.513Z,48.30
2018-11-26T22:07:45.307Z,50.33
2018-11-26T22:10:17.476Z,46.77
2018-11-26T22:12:47.628Z,51.57
2018-11-26T22:15:16.181Z,47.00
2018-11-26T22:17:44.926Z,49.37
2018-11-26T22:20:15.333Z,51.83
2018-11-26T22:22:44.209Z,39.47
2018-11-26T22:25:13.089Z,53.47
2018-11-26T22:27:41.796Z,48.23
2018-11-26T22:30:14.213Z,51.73
2018-11-26T22:32:42.826Z,50.13
2018-11-26T22:35:11.447Z,51.60
2018-11-26T22:37:40.004Z,48.17
2018-11-26T22:40:11.156Z,50.10
2018-11-26T22:42:40.292Z,48.33
2018-11-26T22:45:11.128Z,47.67
2018-11-26T22:47:40.049Z,48.67
2018-11-26T22:50:11.528Z,56.27
2018-11-26T22:52:40.413Z,54.10
2018-11-26T22:55:10.457Z,42.23
2018-11-26T22:57:39.529Z,53.30
2018-11-26T23:00:23.860Z,53.00
2018-11-26T23:02:54.181Z,55.00
2018-11-26T23:05:22.944Z,50.27
2018-11-26T23:07:51.785Z,48.97
2018-11-26T23:10:20.716Z,51.90
2018-11-26T23:12:49.383Z,54.93
2018-11-26T23:15:18.509Z,50.43
2018-11-26T23:17:47.652Z,50.97
2018-11-26T23:20:16.764Z,53.13
2018-11-26T23:22:45.319Z,43.03
2018-11-26T23:25:14.344Z,57.87
2018-11-26T23:27:43.296Z,52.00
2018-11-26T23:30:16.325Z,50.80
2018-11-26T23:32:46.024Z,53.40
2018-11-26T23:35:14.918Z,52.67
2018-11-26T23:37:43.668Z,50.27
2018-11-26T23:40:13.054Z,52.27
2018-11-26T23:42:41.850Z,54.67
2018-11-26T23:45:17.565Z,52.07
2018-11-26T23:47:46.103Z,52.73
2018-11-26T23:50:15.774Z,49.37
2018-11-26T23:52:45.152Z,53.47
2018-11-26T23:55:14.325Z,53.83
2018-11-26T23:57:44.110Z,51.43
